createdAt,value
2019-03-20T00:00:58.078Z,16.30
2019-03-20T00:03:25.546Z,16.30
2019-03-20T00:05:53.018Z,16.30
2019-03-20T00:08:20.478Z,16.30
2019-03-20T00:10:47.945Z,16.30
2019-03-20T00:13:15.414Z,16.20
2019-03-20T00:15:42.887Z,16.30
2019-03-20T00:18:10.358Z,16.30
2019-03-20T00:20:37.817Z,16.30
2019-03-20T00:23:05.285Z,16.30
2019-03-20T00:25:32.771Z,16.30
2019-03-20T00:28:00.238Z,16.30
2019-03-20T00:30:27.705Z,16.30
2019-03-20T00:32:55.170Z,16.30
2019-03-20T00:35:22.645Z,16.30
2019-03-20T00:37:50.160Z,16.30
2019-03-20T00:40:17.934Z,16.30
2019-03-20T00:42:45.400Z,16.30
2019-03-20T00:45:16.151Z,16.30
2019-03-20T00:47:43.602Z,16.30
2019-03-20T00:50:12.193Z,16.30
2019-03-20T00:52:39.725Z,16.30
2019-03-20T00:55:08.174Z,16.30
2019-03-20T00:57:35.637Z,16.20
2019-03-20T01:00:04.437Z,16.20
2019-03-20T01:02:31.913Z,16.30
2019-03-20T01:04:59.377Z,16.20
2019-03-20T01:07:26.869Z,16.30
2019-03-20T01:09:54.355Z,16.30
2019-03-20T01:12:22.099Z,16.20
2019-03-20T01:14:49.564Z,16.30
2019-03-20T01:17:17.030Z,16.20
2019-03-20T01:19:44.506Z,16.20
2019-03-20T01:22:11.974Z,16.20
2019-03-20T01:24:39.442Z,16.30
2019-03-20T01:27:06.909Z,16.20
2019-03-20T01:29:34.378Z,16.20
2019-03-20T01:32:01.847Z,16.20
2019-03-20T01:34:29.314Z,16.20
2019-03-20T01:36:56.786Z,16.20
2019-03-20T01:39:24.253Z,16.20
2019-03-20T01:41:51.723Z,16.20
2019-03-20T01:44:19.185Z,16.20
2019-03-20T01:46:46.657Z,16.30
2019-03-20T01:49:14.122Z,16.20
2019-03-20T01:51:41.595Z,16.20
2019-03-20T01:54:09.058Z,16.20
2019-03-20T01:56:36.529Z,16.20
2019-03-20T01:59:03.994Z,16.20
2019-03-20T02:01:31.461Z,16.20
2019-03-20T02:03:58.934Z,16.20
2019-03-20T02:06:26.402Z,16.20
2019-03-20T02:08:53.865Z,16.20
2019-03-20T02:11:21.324Z,16.20
2019-03-20T02:13:48.784Z,16.20
2019-03-20T02:16:16.253Z,16.20
2019-03-20T02:18:43.718Z,16.20
2019-03-20T02:21:11.173Z,16.20
2019-03-20T02:23:38.634Z,16.20
2019-03-20T02:26:06.412Z,16.20
2019-03-20T02:28:33.873Z,16.20
2019-03-20T02:31:01.333Z,16.20
2019-03-20T02:33:28.798Z,16.20
2019-03-20T02:35:56.253Z,16.20
2019-03-20T02:38:23.721Z,16.10
2019-03-20T02:40:51.186Z,16.10
2019-03-20T02:43:18.662Z,16.20
2019-03-20T02:45:46.117Z,16.20
2019-03-20T02:48:13.666Z,16.20
2019-03-20T02:50:41.121Z,16.20
2019-03-20T02:53:08.596Z,16.20
2019-03-20T02:55:36.058Z,16.20
2019-03-20T02:58:03.534Z,16.20
2019-03-20T03:00:31.002Z,16.20
2019-03-20T03:02:58.458Z,16.20
2019-03-20T03:05:25.910Z,16.10
2019-03-20T03:07:53.378Z,16.20
2019-03-20T03:10:20.837Z,16.20
2019-03-20T03:12:48.310Z,16.20
2019-03-20T03:15:15.858Z,16.10
2019-03-20T03:17:43.414Z,16.10
2019-03-20T03:20:11.449Z,16.20
2019-03-20T03:22:38.913Z,16.10
2019-03-20T03:25:07.041Z,16.10
2019-03-20T03:27:34.557Z,16.20
2019-03-20T03:30:02.110Z,16.10
2019-03-20T03:32:29.611Z,16.10
2019-03-20T03:34:57.076Z,16.10
2019-03-20T03:37:24.554Z,16.10
2019-03-20T03:39:52.017Z,16.10
2019-03-20T03:42:19.474Z,16.20
2019-03-20T03:44:46.945Z,16.10
2019-03-20T03:47:14.487Z,16.10
2019-03-20T03:49:41.975Z,16.10
2019-03-20T03:52:09.435Z,16.10
2019-03-20T03:54:36.911Z,16.10
2019-03-20T03:57:04.373Z,16.10
2019-03-20T03:59:31.830Z,16.20
2019-03-20T04:01:59.293Z,16.10
2019-03-20T04:04:26.754Z,16.10
2019-03-20T04:06:54.231Z,16.10
2019-03-20T04:09:21.707Z,16.10
2019-03-20T04:11:49.175Z,16.10
2019-03-20T04:14:16.647Z,16.10
2019-03-20T04:16:44.113Z,16.10
2019-03-20T04:19:11.578Z,16.10
2019-03-20T04:21:39.039Z,16.10
2019-03-20T04:24:06.506Z,16.10
2019-03-20T04:26:33.966Z,16.10
2019-03-20T04:29:01.469Z,16.10
2019-03-20T04:31:28.926Z,16.10
2019-03-20T04:33:57.733Z,16.10
2019-03-20T04:36:25.329Z,16.10
2019-03-20T04:38:52.790Z,16.10
2019-03-20T04:41:20.263Z,16.10
2019-03-20T04:43:47.712Z,16.10
2019-03-20T04:46:15.177Z,16.10
2019-03-20T04:48:42.641Z,16.10
2019-03-20T04:51:10.105Z,16.10
2019-03-20T04:53:37.575Z,16.00
2019-03-20T04:56:05.040Z,16.10
2019-03-20T04:58:32.497Z,16.10
2019-03-20T05:00:59.974Z,16.10
2019-03-20T05:03:27.434Z,16.00
2019-03-20T05:05:54.896Z,16.00
2019-03-20T05:08:22.362Z,16.10
2019-03-20T05:10:49.820Z,16.10
2019-03-20T05:13:17.281Z,16.00
2019-03-20T05:15:44.749Z,16.10
2019-03-20T05:18:12.213Z,16.00
2019-03-20T05:20:39.677Z,16.10
2019-03-20T05:23:08.504Z,16.10
2019-03-20T05:25:36.152Z,16.10
2019-03-20T05:28:03.637Z,16.10
2019-03-20T05:30:31.169Z,16.10
2019-03-20T05:32:58.653Z,16.10
2019-03-20T05:35:26.114Z,16.10
2019-03-20T05:37:53.577Z,15.80
2019-03-20T05:40:21.045Z,16.10
2019-03-20T05:42:48.513Z,16.10
2019-03-20T05:45:16.344Z,16.10
2019-03-20T05:47:43.818Z,16.10
2019-03-20T05:50:12.241Z,16.10
2019-03-20T05:52:39.709Z,16.10
2019-03-20T05:55:07.436Z,16.10
2019-03-20T05:57:34.908Z,16.10
2019-03-20T06:00:02.656Z,16.10
2019-03-20T06:02:30.121Z,16.10
2019-03-20T06:04:57.576Z,16.10
2019-03-20T06:07:25.045Z,16.10
2019-03-20T06:09:52.502Z,16.10
2019-03-20T06:12:19.973Z,16.10
2019-03-20T06:14:47.436Z,16.10
2019-03-20T06:17:14.901Z,16.10
2019-03-20T06:19:42.370Z,16.10
2019-03-20T06:22:09.837Z,16.10
2019-03-20T06:24:37.311Z,16.10
2019-03-20T06:27:04.774Z,16.10
2019-03-20T06:29:32.238Z,16.10
2019-03-20T06:31:59.696Z,16.10
2019-03-20T06:34:27.176Z,16.10
2019-03-20T06:36:54.682Z,16.10
2019-03-20T06:39:22.145Z,16.10
2019-03-20T06:41:49.618Z,16.10
2019-03-20T06:44:17.101Z,16.10
2019-03-20T06:46:44.578Z,16.10
2019-03-20T06:49:12.029Z,16.10
2019-03-20T06:51:39.488Z,16.10
2019-03-20T06:54:06.953Z,16.10
2019-03-20T06:56:34.422Z,16.10
2019-03-20T06:59:20.293Z,16.20
2019-03-20T07:01:47.753Z,16.10
2019-03-20T07:04:16.840Z,16.10
2019-03-20T07:07:05.214Z,16.10
2019-03-20T07:09:46.542Z,16.10
2019-03-20T07:12:14.016Z,16.10
2019-03-20T07:14:41.545Z,16.10
2019-03-20T07:17:09.050Z,16.10
2019-03-20T07:19:36.501Z,16.10
2019-03-20T07:22:03.971Z,16.10
2019-03-20T07:24:31.455Z,16.10
2019-03-20T07:26:58.939Z,16.10
2019-03-20T07:29:26.409Z,16.10
2019-03-20T07:31:53.873Z,16.10
2019-03-20T07:34:21.343Z,16.10
2019-03-20T07:36:48.809Z,16.10
2019-03-20T07:39:16.294Z,16.10
2019-03-20T07:41:43.752Z,16.10
2019-03-20T07:44:11.219Z,16.20
2019-03-20T07:46:38.713Z,16.20
2019-03-20T07:49:06.165Z,16.30
2019-03-20T07:51:33.634Z,16.30
2019-03-20T07:54:01.111Z,16.30
2019-03-20T07:56:28.643Z,16.30
2019-03-20T07:58:56.113Z,16.30
2019-03-20T08:01:23.586Z,16.30
2019-03-20T08:03:51.133Z,16.30
2019-03-20T08:06:18.598Z,16.40
2019-03-20T08:08:46.069Z,16.30
2019-03-20T08:11:13.529Z,16.30
2019-03-20T08:13:41.013Z,16.30
2019-03-20T08:16:08.480Z,16.30
2019-03-20T08:18:35.946Z,16.30
2019-03-20T08:21:03.427Z,16.30
2019-03-20T08:23:31.005Z,16.30
2019-03-20T08:25:58.466Z,16.30
2019-03-20T08:28:25.945Z,16.30
2019-03-20T08:30:53.423Z,16.30
2019-03-20T08:33:20.880Z,16.30
2019-03-20T08:35:48.380Z,16.30
2019-03-20T08:38:18.620Z,16.30
2019-03-20T08:40:45.561Z,16.30
2019-03-20T08:43:19.216Z,16.40
2019-03-20T08:45:46.715Z,16.30
2019-03-20T08:48:14.213Z,16.30
2019-03-20T08:50:41.789Z,16.40
2019-03-20T08:53:09.243Z,16.40
2019-03-20T08:55:36.822Z,16.30
2019-03-20T08:58:04.307Z,16.40
2019-03-20T09:00:31.830Z,16.40
2019-03-20T09:02:59.341Z,16.40
2019-03-20T09:05:26.891Z,16.40
2019-03-20T09:07:54.353Z,16.40
2019-03-20T09:10:25.089Z,16.40
2019-03-20T09:12:52.606Z,16.40
2019-03-20T09:15:20.382Z,16.40
2019-03-20T09:17:47.882Z,16.40
2019-03-20T09:20:15.807Z,16.40
2019-03-20T09:22:43.276Z,16.40
2019-03-20T09:25:15.274Z,16.40
2019-03-20T09:27:42.744Z,16.40
2019-03-20T09:30:11.586Z,16.40
2019-03-20T09:32:39.067Z,16.40
2019-03-20T09:35:07.109Z,16.40
2019-03-20T09:37:34.758Z,16.40
2019-03-20T09:40:02.253Z,16.40
2019-03-20T09:42:29.716Z,16.40
2019-03-20T09:44:57.211Z,16.40
2019-03-20T09:47:24.665Z,16.50
2019-03-20T09:49:52.166Z,16.50
2019-03-20T09:52:19.633Z,16.50
2019-03-20T09:54:47.099Z,16.50
2019-03-20T09:57:14.565Z,16.50
2019-03-20T09:59:42.046Z,16.50
2019-03-20T10:02:09.506Z,16.50
2019-03-20T10:04:36.994Z,16.60
2019-03-20T10:07:04.449Z,16.60
2019-03-20T10:09:31.937Z,16.60
2019-03-20T10:11:59.446Z,16.60
2019-03-20T10:14:26.948Z,16.60
2019-03-20T10:16:54.401Z,16.70
2019-03-20T10:19:21.913Z,16.60
2019-03-20T10:21:49.379Z,16.60
2019-03-20T10:24:16.892Z,16.60
2019-03-20T10:26:44.351Z,16.70
2019-03-20T10:29:11.814Z,16.70
2019-03-20T10:31:39.290Z,16.70
2019-03-20T10:34:06.763Z,16.70
2019-03-20T10:36:34.229Z,16.70
2019-03-20T10:39:06.482Z,16.70
2019-03-20T10:41:30.944Z,16.70
2019-03-20T10:43:58.437Z,16.70
2019-03-20T10:46:25.940Z,16.70
2019-03-20T10:48:53.499Z,16.70
2019-03-20T10:51:22.779Z,16.70
2019-03-20T10:53:50.277Z,16.70
2019-03-20T10:56:17.902Z,16.70
2019-03-20T10:58:45.409Z,16.70
2019-03-20T11:01:12.926Z,16.70
2019-03-20T11:03:40.438Z,16.70
2019-03-20T11:06:07.946Z,16.80
2019-03-20T11:08:35.462Z,16.70
2019-03-20T11:11:02.988Z,16.80
2019-03-20T11:13:30.557Z,16.80
2019-03-20T11:15:58.065Z,16.80
2019-03-20T11:18:25.582Z,16.70
2019-03-20T11:20:53.687Z,16.80
2019-03-20T11:23:21.349Z,16.80
2019-03-20T11:25:48.859Z,16.80
2019-03-20T11:28:16.442Z,16.70
2019-03-20T11:30:43.941Z,16.70
2019-03-20T11:33:11.450Z,16.80
2019-03-20T11:35:38.961Z,16.70
2019-03-20T11:38:06.481Z,16.70
2019-03-20T11:40:37.598Z,16.80
2019-03-20T11:43:05.103Z,16.80
2019-03-20T11:45:32.609Z,16.70
2019-03-20T11:48:00.120Z,16.80
2019-03-20T11:50:29.261Z,16.70
2019-03-20T11:52:56.964Z,16.70
2019-03-20T11:55:24.544Z,16.70
2019-03-20T11:57:52.053Z,16.70
2019-03-20T12:00:20.233Z,16.70
2019-03-20T12:02:47.751Z,16.70
2019-03-20T12:05:15.326Z,16.70
2019-03-20T12:07:42.839Z,16.70
2019-03-20T12:10:17.685Z,16.70
2019-03-20T12:12:45.262Z,16.70
2019-03-20T12:15:12.753Z,16.70
2019-03-20T12:17:40.301Z,16.70
2019-03-20T12:20:09.576Z,16.70
2019-03-20T12:22:37.084Z,16.70
2019-03-20T12:25:06.227Z,16.70
2019-03-20T12:27:33.819Z,16.70
2019-03-20T12:30:01.398Z,16.70
2019-03-20T12:32:28.945Z,16.70
2019-03-20T12:34:56.441Z,16.70
2019-03-20T12:37:24.052Z,16.70
2019-03-20T12:39:53.360Z,16.70
2019-03-20T12:42:20.853Z,16.70
2019-03-20T12:44:48.434Z,16.60
2019-03-20T12:47:15.949Z,16.70
2019-03-20T12:49:43.458Z,16.60
2019-03-20T12:52:10.968Z,16.70
2019-03-20T12:54:38.485Z,16.70
2019-03-20T12:57:05.993Z,16.70
2019-03-20T12:59:33.505Z,16.70
2019-03-20T13:02:01.270Z,16.70
2019-03-20T13:04:28.788Z,16.70
2019-03-20T13:06:56.293Z,16.70
2019-03-20T13:09:23.866Z,16.60
2019-03-20T13:11:51.409Z,16.60
2019-03-20T13:14:18.959Z,16.60
2019-03-20T13:16:46.525Z,16.60
2019-03-20T13:19:14.041Z,16.70
2019-03-20T13:21:41.545Z,16.70
2019-03-20T13:24:09.063Z,16.70
2019-03-20T13:26:36.566Z,16.60
2019-03-20T13:29:04.081Z,16.60
2019-03-20T13:31:31.590Z,16.60
2019-03-20T13:33:59.420Z,16.60
2019-03-20T13:36:26.917Z,16.60
2019-03-20T13:38:56.480Z,16.60
2019-03-20T13:41:23.720Z,16.60
2019-03-20T13:43:51.229Z,16.60
2019-03-20T13:46:18.733Z,16.60
2019-03-20T13:48:46.324Z,16.60
2019-03-20T13:51:13.895Z,16.60
2019-03-20T13:53:41.404Z,16.60
2019-03-20T13:56:08.901Z,16.70
2019-03-20T13:58:36.415Z,16.60
2019-03-20T14:01:03.933Z,16.60
2019-03-20T14:03:31.433Z,16.60
2019-03-20T14:05:58.964Z,16.60
2019-03-20T14:08:26.477Z,16.60
2019-03-20T14:10:53.984Z,16.60
2019-03-20T14:13:21.578Z,16.60
2019-03-20T14:15:49.149Z,16.60
2019-03-20T14:18:16.673Z,16.60
2019-03-20T14:20:44.169Z,16.60
2019-03-20T14:23:11.687Z,16.60
2019-03-20T14:25:39.194Z,16.60
2019-03-20T14:28:06.786Z,16.60
2019-03-20T14:30:34.292Z,16.60
2019-03-20T14:33:01.803Z,16.60
2019-03-20T14:35:29.313Z,16.60
2019-03-20T14:37:56.812Z,16.60
2019-03-20T14:40:35.423Z,16.60
2019-03-20T14:42:57.518Z,16.60
2019-03-20T14:45:25.169Z,16.60
2019-03-20T14:47:52.696Z,16.60
2019-03-20T14:50:27.903Z,16.60
2019-03-20T14:52:55.419Z,16.60
2019-03-20T14:55:22.930Z,16.60
2019-03-20T14:57:50.460Z,16.60
2019-03-20T15:00:21.805Z,16.60
2019-03-20T15:02:49.309Z,16.60
2019-03-20T15:05:16.822Z,16.60
2019-03-20T15:07:44.329Z,16.60
2019-03-20T15:10:16.185Z,16.60
2019-03-20T15:12:43.690Z,16.60
2019-03-20T15:15:15.741Z,16.60
2019-03-20T15:17:43.296Z,16.60
2019-03-20T15:20:10.975Z,16.60
2019-03-20T15:22:38.496Z,16.60
2019-03-20T15:25:07.638Z,16.60
2019-03-20T15:27:35.145Z,16.60
2019-03-20T15:30:03.126Z,16.60
2019-03-20T15:32:30.990Z,16.60
2019-03-20T15:34:58.617Z,16.60
2019-03-20T15:37:26.199Z,16.60
2019-03-20T15:39:53.702Z,16.60
2019-03-20T15:42:21.209Z,16.60
2019-03-20T15:44:48.721Z,16.60
2019-03-20T15:47:16.225Z,16.60
2019-03-20T15:49:43.736Z,16.60
2019-03-20T15:52:11.252Z,16.60
2019-03-20T15:54:38.761Z,16.60
2019-03-20T15:57:06.350Z,16.60
2019-03-20T15:59:33.854Z,16.60
2019-03-20T16:02:01.357Z,16.60
2019-03-20T16:04:28.884Z,16.70
2019-03-20T16:06:56.385Z,16.60
2019-03-20T16:09:23.888Z,16.70
2019-03-20T16:11:51.401Z,16.60
2019-03-20T16:14:18.918Z,16.60
2019-03-20T16:16:46.426Z,16.60
2019-03-20T16:19:13.941Z,16.60
2019-03-20T16:21:41.461Z,16.60
2019-03-20T16:24:08.962Z,16.70
2019-03-20T16:26:36.478Z,16.60
2019-03-20T16:29:03.982Z,16.60
2019-03-20T16:31:31.502Z,16.60
2019-03-20T16:33:59.073Z,16.60
2019-03-20T16:36:26.573Z,16.60
2019-03-20T16:38:54.086Z,16.60
2019-03-20T16:41:21.586Z,16.70
2019-03-20T16:43:49.098Z,16.70
2019-03-20T16:46:16.606Z,16.70
2019-03-20T16:48:44.174Z,16.70
2019-03-20T16:51:11.677Z,16.70
2019-03-20T16:53:39.198Z,16.70
2019-03-20T16:56:06.726Z,16.60
2019-03-20T16:58:34.282Z,16.70
2019-03-20T17:01:01.809Z,16.70
2019-03-20T17:03:29.336Z,16.70
2019-03-20T17:05:56.833Z,16.70
2019-03-20T17:08:24.351Z,16.70
2019-03-20T17:10:51.854Z,16.70
2019-03-20T17:13:19.363Z,16.70
2019-03-20T17:15:46.857Z,16.70
2019-03-20T17:18:14.362Z,16.70
2019-03-20T17:20:41.985Z,16.60
2019-03-20T17:23:09.494Z,16.70
2019-03-20T17:25:37.162Z,16.60
2019-03-20T17:28:04.961Z,16.70
2019-03-20T17:30:40.109Z,16.70
2019-03-20T17:33:07.616Z,16.70
2019-03-20T17:35:35.117Z,16.70
2019-03-20T17:38:02.717Z,16.70
2019-03-20T17:40:30.226Z,16.60
2019-03-20T17:42:57.742Z,16.70
2019-03-20T17:45:26.019Z,16.70
2019-03-20T17:47:53.533Z,16.70
2019-03-20T17:50:25.402Z,16.70
2019-03-20T17:52:52.986Z,16.70
2019-03-20T17:55:20.515Z,16.60
2019-03-20T17:57:48.027Z,16.70
2019-03-20T18:00:17.152Z,16.70
2019-03-20T18:02:44.673Z,16.70
2019-03-20T18:05:12.178Z,16.60
2019-03-20T18:07:39.719Z,16.70
2019-03-20T18:10:07.224Z,16.70
2019-03-20T18:12:34.742Z,16.70
2019-03-20T18:15:02.249Z,16.70
2019-03-20T18:17:29.749Z,16.70
2019-03-20T18:19:57.276Z,16.70
2019-03-20T18:22:24.778Z,16.70
2019-03-20T18:24:52.292Z,16.70
2019-03-20T18:27:19.781Z,16.70
2019-03-20T18:29:47.293Z,16.70
2019-03-20T18:32:14.793Z,16.70
2019-03-20T18:34:42.293Z,16.70
2019-03-20T18:37:09.823Z,16.70
2019-03-20T18:39:37.393Z,16.70
2019-03-20T18:42:04.856Z,16.70
2019-03-20T18:44:32.383Z,16.70
2019-03-20T18:46:59.891Z,16.70
2019-03-20T18:49:27.468Z,16.70
2019-03-20T18:51:54.997Z,16.70
2019-03-20T18:54:22.469Z,16.70
2019-03-20T18:56:49.939Z,16.70
2019-03-20T18:59:17.527Z,16.70
2019-03-20T19:01:44.987Z,16.70
2019-03-20T19:04:12.478Z,16.70
2019-03-20T19:06:40.005Z,16.70
2019-03-20T19:09:08.540Z,16.60
2019-03-20T19:11:36.085Z,16.70
2019-03-20T19:14:03.636Z,16.70
2019-03-20T19:16:31.154Z,16.70
2019-03-20T19:18:58.656Z,16.70
2019-03-20T19:21:26.178Z,16.70
2019-03-20T19:23:53.670Z,16.70
2019-03-20T19:26:21.199Z,16.70
2019-03-20T19:28:48.663Z,16.60
2019-03-20T19:31:16.129Z,16.70
2019-03-20T19:33:43.657Z,16.70
2019-03-20T19:36:11.173Z,16.70
2019-03-20T19:38:38.666Z,16.70
2019-03-20T19:41:06.141Z,16.70
2019-03-20T19:43:33.611Z,16.70
2019-03-20T19:46:01.087Z,16.70
2019-03-20T19:48:29.558Z,16.60
2019-03-20T19:50:57.230Z,16.60
2019-03-20T19:53:24.702Z,16.60
2019-03-20T19:55:52.183Z,16.70
2019-03-20T19:58:19.637Z,16.70
2019-03-20T20:00:47.138Z,16.60
2019-03-20T20:03:14.596Z,16.60
2019-03-20T20:05:42.162Z,16.70
2019-03-20T20:08:09.626Z,16.70
2019-03-20T20:10:37.180Z,16.70
2019-03-20T20:13:04.654Z,16.70
2019-03-20T20:15:33.826Z,16.70
2019-03-20T20:18:01.301Z,16.70
2019-03-20T20:20:35.705Z,16.70
2019-03-20T20:23:04.455Z,16.70
2019-03-20T20:25:32.218Z,16.60
2019-03-20T20:27:59.698Z,16.70
2019-03-20T20:30:27.169Z,16.60
2019-03-20T20:32:54.641Z,16.60
2019-03-20T20:35:22.481Z,16.60
2019-03-20T20:37:50.217Z,16.60
2019-03-20T20:40:24.182Z,16.60
2019-03-20T20:42:51.650Z,16.60
2019-03-20T20:45:19.132Z,16.60
2019-03-20T20:50:16.313Z,16.60
2019-03-20T20:52:43.948Z,16.60
2019-03-20T20:55:13.061Z,16.60
2019-03-20T20:57:40.514Z,16.60
2019-03-20T21:00:12.237Z,16.60
2019-03-20T21:02:39.702Z,16.60
2019-03-20T21:05:07.713Z,16.60
2019-03-20T21:07:35.174Z,16.60
2019-03-20T21:10:03.013Z,16.60
2019-03-20T21:12:30.482Z,16.60
2019-03-20T21:14:57.958Z,16.60
2019-03-20T21:17:27.054Z,16.60
2019-03-20T21:19:54.528Z,16.60
2019-03-20T21:22:32.725Z,16.60
2019-03-20T21:25:00.400Z,16.60
2019-03-20T21:27:32.474Z,16.60
2019-03-20T21:30:18.313Z,16.60
2019-03-20T21:32:56.645Z,16.60
2019-03-20T21:35:43.815Z,16.60
2019-03-20T21:38:11.044Z,16.60
2019-03-20T21:40:56.779Z,16.60
2019-03-20T21:43:37.696Z,16.60
2019-03-20T21:46:22.076Z,16.60
2019-03-20T21:48:49.541Z,16.60
2019-03-20T21:51:17.010Z,16.50
2019-03-20T21:53:46.100Z,16.50
2019-03-20T21:56:21.202Z,16.50
2019-03-20T21:58:50.601Z,16.50
2019-03-20T22:01:19.699Z,16.60
2019-03-20T22:03:47.161Z,16.60
2019-03-20T22:06:33.228Z,16.60
2019-03-20T22:09:00.978Z,16.50
2019-03-20T22:11:30.064Z,16.50
2019-03-20T22:13:59.199Z,16.60
2019-03-20T22:16:28.320Z,16.50
2019-03-20T22:19:13.860Z,16.60
2019-03-20T22:21:48.662Z,16.60
2019-03-20T22:24:17.762Z,16.50
2019-03-20T22:26:59.129Z,16.50
2019-03-20T22:29:27.085Z,16.50
2019-03-20T22:31:56.169Z,16.50
2019-03-20T22:34:25.549Z,16.60
2019-03-20T22:36:53.292Z,16.50
2019-03-20T22:39:39.184Z,16.50
2019-03-20T22:42:08.287Z,16.50
2019-03-20T22:44:36.609Z,16.50
2019-03-20T22:47:22.130Z,16.50
2019-03-20T22:50:03.449Z,16.50
2019-03-20T22:52:32.546Z,16.50
2019-03-20T22:55:04.602Z,16.50
2019-03-20T22:57:33.702Z,16.50
2019-03-20T23:00:01.164Z,16.50
2019-03-20T23:02:30.262Z,16.50
2019-03-20T23:05:00.653Z,16.50
2019-03-20T23:07:28.806Z,16.50
2019-03-20T23:09:56.244Z,16.50
2019-03-20T23:12:23.719Z,16.50
2019-03-20T23:14:51.183Z,16.50
2019-03-20T23:17:18.721Z,16.50
2019-03-20T23:19:46.590Z,16.50
2019-03-20T23:22:14.053Z,16.50
2019-03-20T23:24:41.592Z,16.50
2019-03-20T23:27:16.737Z,16.60
2019-03-20T23:29:44.197Z,16.50
2019-03-20T23:32:11.660Z,16.50
2019-03-20T23:34:39.138Z,16.50
2019-03-20T23:37:06.675Z,16.50
2019-03-20T23:39:34.141Z,16.50
2019-03-20T23:42:01.606Z,16.50
2019-03-20T23:44:29.066Z,16.50
2019-03-20T23:46:56.531Z,16.50
2019-03-20T23:49:24.892Z,16.50
2019-03-20T23:51:52.613Z,16.50
2019-03-20T23:54:21.653Z,16.50
2019-03-20T23:56:49.118Z,16.50
2019-03-20T23:59:16.608Z,16.50
